Time;durP1;ratioP1;P1;durP2;ratioP2;P2;SDS_P1;SDS_P2;PMS_P1;PMS_P2;Temp;Humidity;BMP_temperature;BMP_pressure;BME280_temperature;BME280_humidity;BME280_pressure;Samples;Min_cycle;Max_cycle;Signal;HPM_P1;HPM_P2
2023/07/07 00:01:27;;;;;;;4.90;2.17;;;;;;;14.93;97.00;100923.22;8280094;28;20061;-66
2023/07/07 00:05:28;;;;;;;6.95;3.08;;;;;;;15.05;95.35;100916.53;8283237;28;20088;-66
2023/07/07 00:09:29;;;;;;;3.70;2.80;;;;;;;15.04;93.95;100914.78;8282580;28;20084;-66
2023/07/07 00:13:29;;;;;;;6.30;2.75;;;;;;;15.11;92.51;100920.47;8279399;28;20034;-66
2023/07/07 00:17:30;;;;;;;6.28;3.35;;;;;;;14.87;93.45;100917.56;8285050;28;20491;-66
2023/07/07 00:21:30;;;;;;;3.85;2.80;;;;;;;14.92;94.59;100905.19;8268662;28;20475;-66
2023/07/07 00:25:31;;;;;;;5.60;2.90;;;;;;;14.71;95.11;100912.84;8283450;28;20539;-66
2023/07/07 00:29:31;;;;;;;5.05;2.95;;;;;;;14.77;94.78;100911.34;8279667;28;20045;-66
2023/07/07 00:33:32;;;;;;;7.80;3.10;;;;;;;14.85;94.49;100917.72;8282758;28;20038;-66
2023/07/07 00:37:34;;;;;;;5.18;2.67;;;;;;;14.62;94.44;100916.50;8285477;28;20466;-66
2023/07/07 00:41:35;;;;;;;7.75;3.60;;;;;;;14.48;95.41;100917.06;8289642;28;20052;-65
2023/07/07 00:45:36;;;;;;;8.30;2.80;;;;;;;14.40;95.58;100925.16;8289525;28;20064;-66
2023/07/07 00:49:36;;;;;;;3.65;2.63;;;;;;;14.44;95.14;100915.66;8290135;28;20128;-66
2023/07/07 00:53:39;;;;;;;9.00;3.20;;;;;;;14.37;95.50;100925.47;8289629;28;20057;-65
2023/07/07 00:57:40;;;;;;;4.80;2.80;;;;;;;14.37;95.58;100911.88;8289340;28;20451;-66
2023/07/07 01:01:41;;;;;;;6.07;2.40;;;;;;;14.35;96.17;100922.03;8289256;28;20038;-66
2023/07/07 01:05:44;;;;;;;6.72;3.28;;;;;;;14.36;96.52;100912.03;8288577;28;20571;-66
2023/07/07 01:09:44;;;;;;;5.72;3.10;;;;;;;14.39;96.15;100923.41;8288892;28;20041;-66
2023/07/07 01:13:45;;;;;;;8.30;3.28;;;;;;;14.33;96.46;100929.47;8294252;28;20038;-66
2023/07/07 01:18:13;;;;;;;6.30;3.60;;;;;;;14.33;96.45;100926.75;8295994;28;20103;-66
2023/07/07 01:22:35;;;;;;;8.07;3.15;;;;;;;14.25;97.91;100926.69;8292750;28;20042;-66
2023/07/07 01:26:58;;;;;;;7.03;3.00;;;;;;;14.37;96.64;100930.03;8295467;28;20112;-65
2023/07/07 01:35:19;;;;;;;5.85;3.00;;;;;;;14.14;97.56;100918.72;8337615;27;20478;-65
2023/07/07 01:39:24;;;;;;;5.82;3.15;;;;;;;14.02;97.97;100930.81;8334460;28;20525;-65
2023/07/07 01:43:35;;;;;;;6.78;3.40;;;;;;;14.06;98.03;100921.34;8337933;28;20033;-65
2023/07/07 01:47:38;;;;;;;4.22;2.70;;;;;;;14.04;97.94;100926.09;8331540;28;20034;-65
2023/07/07 01:51:51;;;;;;;9.65;3.75;;;;;;;13.93;98.65;100928.16;8336282;28;20029;-65
2023/07/07 01:55:57;;;;;;;6.53;3.45;;;;;;;13.79;99.23;100929.53;8333319;28;20074;-65
2023/07/07 01:59:58;;;;;;;9.13;3.60;;;;;;;13.77;99.95;100936.97;8332032;28;20684;-65
2023/07/07 02:03:59;;;;;;;8.05;3.90;;;;;;;13.77;99.92;100923.38;8334900;28;20182;-65
2023/07/07 02:08:00;;;;;;;7.85;3.58;;;;;;;13.70;99.94;100919.56;8336334;28;20124;-65
2023/07/07 02:12:01;;;;;;;8.18;3.20;;;;;;;13.66;100.00;100929.00;8333139;28;20057;-65
2023/07/07 02:16:01;;;;;;;6.28;3.60;;;;;;;13.65;100.00;100921.88;8336725;28;20114;-64
2023/07/07 02:20:03;;;;;;;8.88;3.97;;;;;;;13.57;100.00;100919.03;8334323;28;20273;-65
2023/07/07 02:24:04;;;;;;;6.30;3.33;;;;;;;13.53;100.00;100918.50;8335774;28;20044;-65
2023/07/07 02:28:05;;;;;;;10.50;4.05;;;;;;;13.45;100.00;100931.13;8334419;28;20090;-65
2023/07/07 02:32:07;;;;;;;5.47;3.78;;;;;;;13.41;100.00;100924.25;8329777;28;20041;-65
2023/07/07 02:36:09;;;;;;;8.32;3.25;;;;;;;13.29;100.00;100930.88;8333260;28;20045;-65
2023/07/07 02:40:09;;;;;;;5.45;3.40;;;;;;;13.26;100.00;100923.00;8334397;28;20040;-65
2023/07/07 02:44:12;;;;;;;6.00;3.45;;;;;;;13.30;100.00;100919.03;8324596;28;20053;-64
2023/07/07 02:48:13;;;;;;;6.78;3.58;;;;;;;13.32;100.00;100926.00;8301571;28;20112;-64
2023/07/07 02:52:14;;;;;;;10.88;3.45;;;;;;;13.32;100.00;100919.72;8280957;28;20045;-64
2023/07/07 02:56:14;;;;;;;6.72;3.92;;;;;;;13.26;100.00;100926.59;8278614;28;20100;-64
2023/07/07 03:00:15;;;;;;;8.25;3.50;;;;;;;13.27;100.00;100930.19;8279970;28;20035;-61
2023/07/07 03:04:16;;;;;;;6.82;3.40;;;;;;;13.23;100.00;100928.75;8312374;28;20072;-61
2023/07/07 03:08:16;;;;;;;9.57;3.63;;;;;;;13.17;100.00;100932.03;8310625;28;20037;-61
2023/07/07 03:12:17;;;;;;;7.35;3.90;;;;;;;13.23;100.00;100926.03;8313031;28;20103;-61
2023/07/07 03:16:21;;;;;;;6.07;3.85;;;;;;;13.19;100.00;100925.47;8299154;28;20100;-61
2023/07/07 03:20:26;;;;;;;11.45;5.32;;;;;;;13.19;100.00;100924.63;8274548;28;20057;-61
2023/07/07 03:24:29;;;;;;;6.65;3.60;;;;;;;13.22;100.00;100935.19;8280472;28;20120;-61
2023/07/07 03:28:32;;;;;;;7.38;4.05;;;;;;;13.23;100.00;100934.19;8298041;28;20046;-61
2023/07/07 03:32:34;;;;;;;11.48;4.53;;;;;;;13.21;100.00;100936.19;8308001;28;20041;-60
2023/07/07 03:36:38;;;;;;;7.13;4.93;;;;;;;13.28;100.00;100935.47;8310215;28;20052;-61
2023/07/07 03:40:47;;;;;;;6.28;3.75;;;;;;;13.25;100.00;100934.88;8309745;28;20042;-61
2023/07/07 03:44:51;;;;;;;8.32;3.47;;;;;;;13.20;100.00;100932.63;8306005;28;20400;-61
2023/07/07 03:48:54;;;;;;;8.57;3.88;;;;;;;13.24;100.00;100935.91;8311513;28;20037;-61
2023/07/07 03:52:58;;;;;;;10.68;4.60;;;;;;;13.34;100.00;100936.72;8305530;28;20132;-61
2023/07/07 03:56:59;;;;;;;7.88;4.50;;;;;;;13.29;100.00;100939.00;8310153;28;20044;-61
2023/07/07 04:01:01;;;;;;;6.78;4.15;;;;;;;13.48;100.00;100938.97;8292538;28;20531;-61
2023/07/07 04:05:02;;;;;;;9.18;4.00;;;;;;;13.53;100.00;100947.50;8298912;28;20033;-61
2023/07/07 04:09:03;;;;;;;11.57;3.70;;;;;;;13.63;100.00;100951.03;8305558;28;20044;-61
2023/07/07 04:13:04;;;;;;;5.47;3.60;;;;;;;13.70;99.68;100958.44;8301088;28;20050;-61
2023/07/07 04:17:05;;;;;;;6.07;4.05;;;;;;;13.72;98.65;100950.13;8299617;28;20038;-61
2023/07/07 04:21:09;;;;;;;6.13;3.35;;;;;;;13.81;98.64;100943.81;8302309;28;20049;-61
2023/07/07 04:25:13;;;;;;;6.18;3.42;;;;;;;14.02;96.70;100949.84;8304648;28;20040;-61
2023/07/07 04:29:14;;;;;;;7.38;4.40;;;;;;;14.00;97.74;100951.00;8296614;28;20092;-61
2023/07/07 04:33:14;;;;;;;8.75;3.53;;;;;;;14.21;96.31;100959.75;8304512;28;20045;-61
2023/07/07 04:37:16;;;;;;;7.82;3.88;;;;;;;14.17;96.25;100953.75;8299933;28;20042;-60
2023/07/07 04:41:21;;;;;;;9.20;4.00;;;;;;;14.35;95.79;100954.69;8305693;28;20041;-61
2023/07/07 04:45:21;;;;;;;5.45;4.10;;;;;;;14.44;94.76;100956.47;8308913;28;20134;-61
2023/07/07 04:49:23;;;;;;;5.95;3.40;;;;;;;14.48;94.17;100957.88;8304182;28;20041;-60
2023/07/07 04:53:25;;;;;;;6.85;3.55;;;;;;;14.59;93.69;100952.19;8304843;28;20037;-60
2023/07/07 04:57:25;;;;;;;8.45;3.63;;;;;;;14.74;93.19;100953.38;8308304;28;20094;-61
2023/07/07 05:01:28;;;;;;;6.30;3.63;;;;;;;15.01;91.99;100957.84;8302599;28;20470;-61
2023/07/07 05:05:28;;;;;;;7.68;3.42;;;;;;;14.89;91.66;100965.41;8308971;28;20041;-60
2023/07/07 05:09:29;;;;;;;5.57;3.53;;;;;;;14.98;92.52;100953.53;8304443;28;20068;-61
2023/07/07 05:13:30;;;;;;;9.52;3.78;;;;;;;15.15;91.92;100954.53;8302624;28;20057;-55
2023/07/07 05:17:30;;;;;;;10.60;3.55;;;;;;;15.38;91.30;100945.72;8303914;28;20443;-55
2023/07/07 05:21:31;;;;;;;7.32;3.42;;;;;;;15.65;89.78;100953.69;8300016;28;20156;-57
2023/07/07 05:25:31;;;;;;;9.60;3.60;;;;;;;15.86;88.87;100966.94;8301374;28;20473;-57
2023/07/07 05:29:32;;;;;;;7.30;3.35;;;;;;;16.17;87.41;100968.09;8306202;28;20600;-54
2023/07/07 05:33:33;;;;;;;6.78;3.40;;;;;;;16.17;87.29;100964.47;8299895;28;20119;-54
2023/07/07 05:37:34;;;;;;;7.15;3.20;;;;;;;16.35;87.67;100962.50;8307464;28;20048;-56
2023/07/07 05:41:34;;;;;;;4.32;3.20;;;;;;;16.54;86.21;100964.94;8305875;28;20037;-56
2023/07/07 05:45:35;;;;;;;12.98;3.53;;;;;;;16.91;85.35;100959.88;8304991;28;20045;-55
2023/07/07 05:49:35;;;;;;;6.93;3.58;;;;;;;17.23;84.67;100973.53;8304070;28;20068;-56
2023/07/07 05:53:40;;;;;;;6.63;3.42;;;;;;;17.59;82.56;100966.66;8302505;28;20046;-56
2023/07/07 05:57:40;;;;;;;;;;;;;;;17.88;81.54;100961.44;8305916;28;20634;-56
2023/07/07 06:01:41;;;;;;;7.73;3.50;;;;;;;18.15;78.97;100969.22;8304071;28;19939;-55
2023/07/07 06:05:43;;;;;;;8.13;3.10;;;;;;;18.46;77.72;100956.41;8304156;28;20300;-55
2023/07/07 06:09:49;;;;;;;8.30;3.05;;;;;;;18.31;77.68;100963.63;8305470;28;20136;-60
2023/07/07 06:13:50;;;;;;;5.60;3.00;;;;;;;18.59;78.92;100962.13;8301369;28;20551;-59
2023/07/07 06:17:50;;;;;;;6.72;3.00;;;;;;;18.99;77.08;100963.69;8304659;28;20444;-56
2023/07/07 06:21:50;;;;;;;4.75;2.83;;;;;;;19.18;75.41;100961.31;8310598;28;20502;-56
2023/07/07 06:25:52;;;;;;;4.65;2.88;;;;;;;19.16;76.01;100966.09;8311166;28;20117;-56
2023/07/07 06:29:53;;;;;;;5.70;3.25;;;;;;;19.44;75.37;100963.66;8310710;28;20038;-55
2023/07/07 06:33:53;;;;;;;7.93;3.47;;;;;;;19.66;74.05;100962.75;8309732;28;20041;-56
2023/07/07 06:37:54;;;;;;;7.55;2.65;;;;;;;20.17;71.35;100969.19;8309814;28;20037;-58
2023/07/07 06:41:55;;;;;;;4.65;2.50;;;;;;;20.67;70.47;100966.41;8312184;28;20037;-58
2023/07/07 06:45:58;;;;;;;6.20;3.13;;;;;;;20.76;70.23;100968.00;8311174;28;20041;-58
2023/07/07 06:49:59;;;;;;;8.90;2.55;;;;;;;20.61;70.85;100972.69;8310688;28;20040;-57
2023/07/07 06:53:59;;;;;;;6.13;2.70;;;;;;;20.84;69.21;100976.13;8309468;28;20045;-56
2023/07/07 06:58:00;;;;;;;6.90;2.72;;;;;;;20.58;69.87;100984.06;8309966;28;20092;-55
2023/07/07 07:02:00;;;;;;;6.28;3.10;;;;;;;20.97;70.77;100981.78;8309184;28;20121;-55
2023/07/07 07:06:01;;;;;;;5.85;2.85;;;;;;;21.25;68.85;100974.41;8308946;28;20120;-56
2023/07/07 07:10:03;;;;;;;9.27;2.88;;;;;;;21.62;68.51;100982.34;8306835;28;20034;-55
2023/07/07 07:14:04;;;;;;;4.65;2.50;;;;;;;21.89;68.07;100986.19;8311899;28;20053;-55
2023/07/07 07:18:04;;;;;;;5.38;2.60;;;;;;;22.36;67.80;100984.31;8309316;28;20043;-55
2023/07/07 07:22:05;;;;;;;6.72;2.50;;;;;;;22.53;65.13;100987.56;8311434;28;20041;-60
2023/07/07 07:26:05;;;;;;;8.38;2.50;;;;;;;23.08;65.40;100982.63;8310374;28;20088;-59
2023/07/07 07:30:07;;;;;;;8.52;2.17;;;;;;;22.94;63.90;100985.59;8308736;28;20030;-60
2023/07/07 07:34:26;;;;;;;4.00;2.25;;;;;;;22.82;63.55;100982.59;8307649;28;20088;-60
2023/07/07 07:38:27;;;;;;;4.20;1.77;;;;;;;23.07;62.76;100975.41;8308958;28;20118;-60
2023/07/07 07:42:28;;;;;;;4.20;1.70;;;;;;;23.39;63.20;100983.97;8308112;28;20066;-60
2023/07/07 07:46:29;;;;;;;5.28;2.30;;;;;;;23.77;60.63;100974.78;8309418;28;20042;-59
2023/07/07 07:50:31;;;;;;;5.18;2.00;;;;;;;23.82;59.74;100968.63;8311018;28;20045;-60
2023/07/07 07:54:31;;;;;;;5.90;2.17;;;;;;;23.84;60.12;100972.00;8307917;28;20084;-60
2023/07/07 07:58:32;;;;;;;6.53;2.03;;;;;;;24.22;59.04;100971.09;8310523;28;20041;-60
2023/07/07 08:02:32;;;;;;;2.78;1.80;;;;;;;24.61;57.94;100972.84;8306866;28;20044;-61
2023/07/07 08:06:33;;;;;;;4.60;2.10;;;;;;;24.82;58.22;100969.75;8307590;28;20038;-60
2023/07/07 08:10:34;;;;;;;6.75;1.98;;;;;;;24.90;57.77;100966.75;8308399;28;20072;-61
2023/07/07 08:14:35;;;;;;;9.05;1.85;;;;;;;25.03;56.94;100970.25;8306557;28;20042;-62
2023/07/07 08:18:37;;;;;;;2.90;1.75;;;;;;;25.17;55.96;100965.47;8306499;28;20515;-60
2023/07/07 08:22:38;;;;;;;127.05;10.38;;;;;;;25.83;56.60;100972.16;8310061;28;20037;-61
2023/07/07 08:26:38;;;;;;;2.53;1.40;;;;;;;25.74;54.34;100967.97;8307812;28;20129;-62
2023/07/07 08:30:38;;;;;;;8.15;1.50;;;;;;;26.05;53.53;100976.22;8306442;28;20048;-61
2023/07/07 08:34:39;;;;;;;5.20;1.70;;;;;;;26.58;53.17;100982.81;8302225;28;20041;-62
2023/07/07 08:38:40;;;;;;;4.15;1.83;;;;;;;26.52;53.56;100989.31;8307117;28;20041;-62
2023/07/07 08:42:41;;;;;;;2.67;1.73;;;;;;;26.81;52.05;100977.41;8308234;28;20499;-61
2023/07/07 08:47:08;;;;;;;2.88;1.35;;;;;;;26.75;51.39;100989.44;8308050;28;20308;-61
2023/07/07 08:51:16;;;;;;;5.30;1.45;;;;;;;27.03;51.13;100979.66;8304825;28;20499;-61
2023/07/07 08:55:56;;;;;;;3.40;1.50;;;;;;;27.08;51.58;100977.03;8306751;28;20042;-61
2023/07/07 09:00:20;;;;;;;19.55;1.88;;;;;;;27.29;51.58;100963.44;8305088;28;20037;-61
2023/07/07 09:04:54;;;;;;;5.00;1.30;;;;;;;27.52;50.27;100966.28;8305494;28;20156;-60
2023/07/07 09:09:09;;;;;;;4.97;1.38;;;;;;;27.69;50.13;100964.47;8303124;28;20388;-62
2023/07/07 09:13:21;;;;;;;5.88;1.65;;;;;;;28.13;49.13;100971.38;8305707;28;20411;-60
2023/07/07 09:17:35;;;;;;;4.38;1.75;;;;;;;27.86;46.48;100962.69;8302662;28;20507;-59
2023/07/07 09:21:42;;;;;;;5.43;1.75;;;;;;;27.93;49.46;100959.78;8307526;28;20065;-61
2023/07/07 09:25:49;;;;;;;3.45;1.92;;;;;;;28.21;45.63;100962.66;8306956;28;20042;-61
2023/07/07 09:29:55;;;;;;;5.13;1.50;;;;;;;28.13;44.45;100938.00;8303702;28;20045;-61
2023/07/07 09:33:59;;;;;;;4.68;1.83;;;;;;;28.35;44.43;100942.66;8305187;28;20033;-61
2023/07/07 09:38:14;;;;;;;5.32;1.48;;;;;;;28.63;45.52;100948.28;8307278;28;20497;-61
2023/07/07 09:42:43;;;;;;;3.20;1.67;;;;;;;28.72;42.82;100931.19;8302426;28;20591;-61
2023/07/07 09:47:08;;;;;;;4.13;1.70;;;;;;;28.81;43.22;100941.66;8313949;28;20038;-60
2023/07/07 09:51:43;;;;;;;5.22;2.08;;;;;;;28.84;42.56;100946.72;8305851;28;20129;-61
2023/07/07 09:55:44;;;;;;;6.85;2.20;;;;;;;28.74;42.16;100932.63;8305913;28;20057;-61
2023/07/07 09:59:50;;;;;;;2.60;1.63;;;;;;;28.86;42.35;100938.97;8324583;28;20077;-62
2023/07/07 10:03:50;;;;;;;2.63;1.67;;;;;;;29.77;40.31;100931.13;8309741;28;20052;-62
2023/07/07 10:07:52;;;;;;;4.45;1.70;;;;;;;31.20;39.62;100936.28;8310941;28;20042;-62
2023/07/07 10:11:53;;;;;;;2.60;1.30;;;;;;;32.90;37.47;100937.34;8310090;28;20388;-62
2023/07/07 10:21:19;;;;;;;3.05;1.75;;;;;;;33.43;36.21;100931.28;8334038;27;20377;-63
2023/07/07 10:25:22;;;;;;;2.85;1.48;;;;;;;33.76;35.95;100924.25;8334867;28;20045;-62
2023/07/07 10:29:26;;;;;;;3.47;1.73;;;;;;;34.10;35.10;100930.06;8331824;28;20048;-63
2023/07/07 10:33:26;;;;;;;6.53;2.03;;;;;;;35.34;33.80;100925.78;8327368;28;20140;-62
2023/07/07 10:37:29;;;;;;;4.38;1.58;;;;;;;35.66;32.94;100916.78;8333822;28;20309;-62
2023/07/07 10:41:29;;;;;;;2.70;1.50;;;;;;;35.16;34.85;100922.81;8331496;28;20034;-62
2023/07/07 10:45:30;;;;;;;8.00;2.28;;;;;;;34.89;34.85;100925.25;8331788;28;20207;-62
2023/07/07 10:49:31;;;;;;;2.50;1.63;;;;;;;35.33;32.57;100924.13;8331505;28;20045;-63
2023/07/07 10:53:47;;;;;;;3.15;1.40;;;;;;;36.21;32.01;100913.38;8331698;28;20491;-63
2023/07/07 10:58:28;;;;;;;3.22;1.60;;;;;;;36.01;31.96;100912.78;8330294;28;20129;-62
2023/07/07 11:02:53;;;;;;;4.25;1.67;;;;;;;35.91;32.06;100910.91;8327431;28;20409;-62
2023/07/07 11:07:33;;;;;;;3.88;1.70;;;;;;;36.07;32.22;100905.97;8326633;28;20045;-63
2023/07/07 11:16:21;;;;;;;2.55;1.85;;;;;;;36.28;32.31;100899.78;8344455;27;20824;-63
2023/07/07 11:21:01;;;;;;;6.45;2.63;;;;;;;36.40;30.96;100905.84;8400725;27;20350;-63
2023/07/07 11:25:19;;;;;;;7.07;2.28;;;;;;;35.61;32.15;100897.13;8384267;27;20041;-63
2023/07/07 11:29:35;;;;;;;2.38;1.60;;;;;;;35.89;31.26;100882.25;8398800;27;20405;-63
2023/07/07 11:34:06;;;;;;;5.30;1.85;;;;;;;36.19;31.28;100876.22;8392934;27;20094;-63
2023/07/07 11:42:53;;;;;;;17.10;2.05;;;;;;;37.39;30.63;100880.09;8386682;27;20393;-62
2023/07/07 11:47:14;;;;;;;3.45;1.65;;;;;;;36.32;32.17;100869.91;8395637;27;20498;-63
2023/07/07 11:51:33;;;;;;;4.30;2.05;;;;;;;36.73;31.63;100865.34;8393156;27;20037;-62
2023/07/07 11:56:13;;;;;;;3.35;1.98;;;;;;;35.84;32.39;100873.84;8367988;27;20572;-63
2023/07/07 12:00:53;;;;;;;4.80;1.60;;;;;;;36.20;32.22;100866.66;8377941;27;20127;-62
2023/07/07 12:04:58;;;;;;;7.35;2.00;;;;;;;36.44;32.18;100861.81;8381305;27;20033;-62
2023/07/07 12:09:06;;;;;;;11.55;2.00;;;;;;;35.98;32.67;100871.97;8363032;27;20269;-67
2023/07/07 12:13:22;;;;;;;4.28;1.67;;;;;;;35.85;33.83;100857.78;8378136;28;20198;-71
2023/07/07 12:17:28;;;;;;;3.53;2.05;;;;;;;33.59;36.00;100857.22;8378914;27;20453;-67
2023/07/07 12:21:33;;;;;;;6.43;1.63;;;;;;;32.27;35.50;100850.03;8379254;27;20076;-67
2023/07/07 12:25:33;;;;;;;3.78;1.67;;;;;;;31.13;36.83;100851.84;8376525;28;20106;-69
2023/07/07 12:29:38;;;;;;;5.20;1.83;;;;;;;31.04;37.87;100836.66;8376931;27;20310;-67
2023/07/07 12:33:40;;;;;;;3.63;2.00;;;;;;;31.03;37.01;100840.53;8377308;27;20048;-67
2023/07/07 12:37:41;;;;;;;5.18;1.50;;;;;;;30.96;38.17;100834.34;8377949;28;20098;-67
2023/07/07 12:41:41;;;;;;;4.20;2.28;;;;;;;30.69;37.44;100825.13;8382054;27;20041;-67
2023/07/07 12:45:45;;;;;;;2.85;1.90;;;;;;;30.69;36.64;100823.19;8385898;27;20055;-67
2023/07/07 12:49:55;;;;;;;3.15;1.75;;;;;;;30.46;36.11;100825.47;8379285;27;20127;-68
2023/07/07 12:53:56;;;;;;;3.20;2.13;;;;;;;30.79;38.26;100828.06;8355445;28;20048;-67
2023/07/07 12:58:02;;;;;;;4.35;1.90;;;;;;;31.05;36.50;100821.59;8356505;28;20423;-67
2023/07/07 13:02:16;;;;;;;7.35;2.03;;;;;;;30.89;36.60;100823.38;8353364;28;20563;-67
2023/07/07 13:06:36;;;;;;;4.15;1.98;;;;;;;30.81;36.80;100809.06;8357739;28;20542;-67
2023/07/07 13:15:06;;;;;;;5.55;2.00;;;;;;;30.52;36.90;100816.03;8384919;27;20473;-67
2023/07/07 13:19:07;;;;;;;3.10;1.88;;;;;;;30.42;36.85;100795.28;8378633;27;20443;-66
2023/07/07 13:23:20;;;;;;;9.00;3.22;;;;;;;30.54;36.66;100799.84;8380687;27;20068;-66
2023/07/07 13:27:23;;;;;;;6.93;2.67;;;;;;;30.82;37.60;100785.63;8375474;27;20466;-65
2023/07/07 13:31:26;;;;;;;4.28;2.28;;;;;;;30.95;36.19;100779.59;8370891;27;20037;-66
2023/07/07 13:35:26;;;;;;;4.60;2.20;;;;;;;30.76;35.58;100781.13;8382096;28;20070;-65
2023/07/07 13:39:27;;;;;;;3.97;2.15;;;;;;;30.68;35.97;100782.44;8378234;27;20040;-65
2023/07/07 13:43:32;;;;;;;5.13;1.80;;;;;;;31.02;35.56;100771.81;8380457;27;20048;-64
2023/07/07 13:47:39;;;;;;;2.63;2.03;;;;;;;31.06;35.72;100762.63;8395685;27;20048;-64
2023/07/07 13:51:52;;;;;;;4.43;1.73;;;;;;;30.58;34.44;100764.75;8396997;27;20040;-65
2023/07/07 13:55:53;;;;;;;3.15;1.95;;;;;;;30.23;34.94;100763.28;8390971;27;20079;-65
2023/07/07 13:59:53;;;;;;;3.85;2.22;;;;;;;30.51;37.28;100762.16;8392670;27;20036;-65
2023/07/07 14:03:57;;;;;;;3.58;2.25;;;;;;;30.49;36.55;100755.16;8395348;27;20043;-65
2023/07/07 14:07:58;;;;;;;5.07;2.25;;;;;;;30.50;35.98;100756.84;8397250;27;20076;-65
2023/07/07 14:11:59;;;;;;;4.50;2.20;;;;;;;30.57;36.28;100751.88;8392725;27;20884;-62
2023/07/07 14:16:10;;;;;;;2.92;1.95;;;;;;;30.47;36.01;100757.38;8395798;27;20036;-62
2023/07/07 14:20:20;;;;;;;3.40;2.42;;;;;;;30.58;35.89;100750.78;8379843;27;20047;-63
2023/07/07 14:24:26;;;;;;;4.63;2.40;;;;;;;30.82;35.85;100752.09;8362335;27;20556;-63
2023/07/07 14:28:33;;;;;;;4.20;2.22;;;;;;;31.02;36.10;100749.47;8333653;28;20442;-62
2023/07/07 14:32:43;;;;;;;3.78;2.15;;;;;;;30.88;37.41;100753.81;8337334;28;20123;-62
2023/07/07 14:36:47;;;;;;;4.65;2.28;;;;;;;30.70;35.77;100741.09;8354464;28;20469;-63
2023/07/07 14:40:48;;;;;;;4.80;2.22;;;;;;;30.82;36.83;100738.13;8358243;28;20044;-62
2023/07/07 14:44:52;;;;;;;5.18;2.97;;;;;;;30.59;37.06;100733.75;8356967;28;20032;-62
2023/07/07 14:48:55;;;;;;;5.63;3.03;;;;;;;30.95;36.67;100729.31;8350508;28;20095;-62
2023/07/07 14:52:58;;;;;;;4.80;2.70;;;;;;;31.11;36.94;100731.09;8345534;28;20061;-62
2023/07/07 14:57:15;;;;;;;4.50;2.60;;;;;;;30.68;35.45;100721.00;8347522;28;20041;-62
2023/07/07 15:01:18;;;;;;;5.97;2.45;;;;;;;30.72;35.77;100721.28;8342451;28;20033;-62
2023/07/07 15:09:30;;;;;;;3.90;2.83;;;;;;;30.80;35.85;100720.84;8364930;27;20444;-63
2023/07/07 15:13:31;;;;;;;7.70;3.55;;;;;;;30.84;36.51;100724.75;8330597;28;20147;-62
2023/07/07 15:17:32;;;;;;;5.28;3.20;;;;;;;30.94;36.95;100719.25;8329417;28;20037;-62
2023/07/07 15:21:32;;;;;;;5.10;3.03;;;;;;;30.90;36.72;100723.69;8327130;28;20063;-62
2023/07/07 15:25:33;;;;;;;6.17;3.10;;;;;;;30.89;37.54;100716.44;8327054;28;20065;-62
2023/07/07 15:29:36;;;;;;;5.38;3.35;;;;;;;30.81;36.52;100714.97;8326539;28;20527;-62
2023/07/07 15:33:36;;;;;;;5.50;3.10;;;;;;;30.76;36.14;100706.56;8320313;28;20097;-62
2023/07/07 15:37:37;;;;;;;5.60;3.40;;;;;;;30.68;35.85;100706.19;8343446;28;20044;-63
2023/07/07 15:41:37;;;;;;;5.32;3.40;;;;;;;30.63;36.01;100697.75;8329274;28;20343;-62
2023/07/07 15:45:38;;;;;;;6.28;3.85;;;;;;;30.83;36.67;100700.75;8329831;28;20406;-62
2023/07/07 15:49:38;;;;;;;7.70;3.85;;;;;;;30.82;36.06;100696.25;8327890;28;20064;-63
2023/07/07 15:53:38;;;;;;;5.77;3.53;;;;;;;30.96;37.13;100680.72;8331103;28;20099;-62
2023/07/07 15:57:39;;;;;;;8.70;3.80;;;;;;;30.72;35.46;100688.63;8325168;28;20288;-62
2023/07/07 16:01:39;;;;;;;4.00;3.08;;;;;;;30.84;36.80;100680.06;8325543;28;20537;-62
2023/07/07 16:05:40;;;;;;;6.40;3.67;;;;;;;30.75;35.50;100671.38;8329364;28;20653;-62
2023/07/07 16:09:40;;;;;;;4.78;3.65;;;;;;;30.80;36.03;100663.03;8326561;28;20125;-62
2023/07/07 16:13:43;;;;;;;4.88;3.70;;;;;;;30.78;35.77;100667.19;8327728;28;20037;-62
2023/07/07 16:17:44;;;;;;;5.38;3.60;;;;;;;30.83;36.11;100661.66;8316662;28;20049;-62
2023/07/07 16:21:44;;;;;;;4.57;3.45;;;;;;;30.75;35.57;100660.19;8303449;28;20053;-62
2023/07/07 16:25:44;;;;;;;6.65;3.67;;;;;;;30.85;36.38;100651.03;8295254;28;20546;-62
2023/07/07 16:29:46;;;;;;;5.40;3.53;;;;;;;30.70;35.41;100656.50;8290276;28;20049;-63
2023/07/07 16:33:46;;;;;;;6.28;3.55;;;;;;;30.71;36.63;100642.28;8291864;28;20050;-63
2023/07/07 16:37:46;;;;;;;4.10;3.05;;;;;;;30.67;36.54;100648.66;8298248;28;20073;-63
2023/07/07 16:41:47;;;;;;;4.82;3.83;;;;;;;30.66;36.41;100645.03;8305325;28;20049;-63
2023/07/07 16:45:47;;;;;;;7.43;3.70;;;;;;;30.70;36.76;100639.75;8303859;28;20048;-63
2023/07/07 16:49:48;;;;;;;5.25;3.80;;;;;;;30.65;36.74;100636.91;8303558;28;20471;-63
2023/07/07 16:53:49;;;;;;;5.13;3.38;;;;;;;30.71;37.09;100633.06;8304911;28;20041;-63
2023/07/07 16:57:49;;;;;;;5.80;3.40;;;;;;;30.71;38.00;100641.44;8306256;28;20045;-63
2023/07/07 17:01:50;;;;;;;5.40;3.72;;;;;;;30.69;36.88;100632.47;8303449;28;20038;-63
2023/07/07 17:05:50;;;;;;;5.43;3.50;;;;;;;30.73;36.74;100628.03;8302800;28;20053;-63
2023/07/07 17:09:50;;;;;;;4.70;4.00;;;;;;;30.67;37.13;100629.94;8306543;28;20054;-63
2023/07/07 17:13:52;;;;;;;5.17;3.23;;;;;;;30.49;37.30;100626.75;8308213;28;20291;-64
2023/07/07 17:17:53;;;;;;;6.57;3.40;;;;;;;30.41;38.19;100631.72;8304448;28;20757;-63
2023/07/07 17:21:54;;;;;;;6.15;3.60;;;;;;;30.27;38.21;100618.50;8306919;28;20056;-63
2023/07/07 17:25:55;;;;;;;7.60;3.80;;;;;;;30.15;38.73;100623.38;8302187;28;20044;-63
2023/07/07 17:29:55;;;;;;;4.78;3.53;;;;;;;30.10;38.79;100624.16;8302544;28;20038;-63
2023/07/07 17:33:55;;;;;;;6.07;3.78;;;;;;;30.05;38.86;100618.56;8305915;28;20042;-63
2023/07/07 17:37:56;;;;;;;5.82;3.70;;;;;;;29.98;39.05;100617.91;8306503;28;20052;-63
2023/07/07 17:41:56;;;;;;;5.73;3.53;;;;;;;29.86;39.85;100617.28;8306942;28;20045;-63
2023/07/07 17:45:57;;;;;;;9.40;3.78;;;;;;;29.81;39.57;100613.56;8305258;28;20691;-63
2023/07/07 17:50:02;;;;;;;6.00;3.50;;;;;;;29.79;39.88;100613.03;8308079;28;20124;-63
2023/07/07 17:54:02;;;;;;;6.05;3.28;;;;;;;29.67;40.29;100610.38;8293196;28;20276;-63
2023/07/07 17:58:08;;;;;;;6.20;4.22;;;;;;;29.60;40.28;100603.28;8305243;28;20078;-63
2023/07/07 18:02:10;;;;;;;5.25;3.47;;;;;;;29.52;40.91;100604.59;8303599;28;20103;-63
2023/07/07 18:06:18;;;;;;;5.45;3.70;;;;;;;29.42;41.64;100610.06;8307046;28;20038;-63
2023/07/07 18:10:26;;;;;;;5.22;3.80;;;;;;;29.27;41.53;100612.69;8303577;28;20030;-63
2023/07/07 18:14:27;;;;;;;9.50;6.15;;;;;;;29.20;42.50;100619.53;8307560;28;20044;-63
2023/07/07 18:18:27;;;;;;;6.97;4.53;;;;;;;29.03;42.86;100616.78;8302171;28;20045;-63
2023/07/07 18:22:27;;;;;;;7.70;4.10;;;;;;;28.93;42.83;100613.88;8305433;28;20557;-63
2023/07/07 18:26:32;;;;;;;5.88;4.00;;;;;;;28.80;43.40;100616.19;8305611;28;20048;-63
2023/07/07 18:30:39;;;;;;;9.70;3.58;;;;;;;28.75;43.16;100619.75;8300604;28;20407;-63
2023/07/07 18:34:40;;;;;;;6.97;3.92;;;;;;;28.63;43.43;100616.22;8304757;28;20513;-62
2023/07/07 18:38:41;;;;;;;6.90;3.40;;;;;;;28.54;43.54;100615.81;8305365;28;20416;-63
2023/07/07 18:42:41;;;;;;;7.22;3.70;;;;;;;28.45;44.51;100620.13;8299202;28;20041;-63
2023/07/07 18:46:42;;;;;;;5.30;3.35;;;;;;;28.31;44.02;100618.78;8303515;28;20125;-63
2023/07/07 18:50:43;;;;;;;5.80;3.55;;;;;;;28.18;44.39;100609.94;8305569;28;20034;-63
2023/07/07 18:54:43;;;;;;;6.22;3.13;;;;;;;28.04;44.23;100619.69;8300939;28;20046;-63
2023/07/07 18:58:44;;;;;;;3.50;2.88;;;;;;;27.89;44.87;100613.88;8305478;28;20050;-63
2023/07/07 19:02:45;;;;;;;6.45;3.88;;;;;;;27.80;44.49;100609.78;8298334;28;20092;-63
2023/07/07 19:06:46;;;;;;;6.82;3.30;;;;;;;27.73;44.62;100609.97;8304992;28;20133;-62
2023/07/07 19:10:47;;;;;;;7.13;3.47;;;;;;;27.61;44.87;100605.53;8301487;28;20042;-63
2023/07/07 19:14:47;;;;;;;9.35;3.28;;;;;;;27.48;45.04;100605.84;8302961;28;20045;-63
2023/07/07 19:18:50;;;;;;;6.25;3.35;;;;;;;27.35;45.45;100598.66;8304227;28;20041;-63
2023/07/07 19:22:59;;;;;;;4.97;3.40;;;;;;;27.25;45.29;100600.38;8298798;28;20180;-62